createdAt,value
2018-09-25T00:00:18.033Z,2.10
2018-09-25T00:02:51.631Z,2.13
2018-09-25T00:05:25.407Z,2.10
2018-09-25T00:07:58.996Z,1.90
2018-09-25T00:10:32.648Z,1.70
2018-09-25T00:13:06.324Z,2.23
2018-09-25T00:15:39.907Z,2.23
2018-09-25T00:18:13.343Z,2.00
2018-09-25T00:20:47.099Z,2.43
2018-09-25T00:23:20.819Z,1.97
2018-09-25T00:25:54.556Z,1.90
2018-09-25T00:28:28.160Z,1.60
2018-09-25T00:31:01.916Z,2.13
2018-09-25T00:33:35.505Z,1.80
2018-09-25T00:36:09.048Z,1.70
2018-09-25T00:38:42.725Z,1.93
2018-09-25T00:41:16.355Z,1.80
2018-09-25T00:43:49.927Z,1.97
2018-09-25T00:46:23.705Z,1.97
2018-09-25T00:48:57.344Z,2.17
2018-09-25T00:51:30.827Z,1.50
2018-09-25T00:54:04.353Z,2.10
2018-09-25T00:56:37.918Z,1.63
2018-09-25T00:59:11.641Z,1.97
2018-09-25T01:01:45.239Z,1.60
2018-09-25T01:04:18.998Z,2.40
2018-09-25T01:06:52.649Z,2.20
2018-09-25T01:09:26.432Z,2.20
2018-09-25T01:12:00.084Z,2.67
2018-09-25T01:14:33.755Z,2.43
2018-09-25T01:17:07.563Z,2.10
2018-09-25T01:19:41.279Z,2.00
2018-09-25T01:22:14.951Z,2.17
2018-09-25T01:24:48.500Z,2.23
2018-09-25T01:27:22.084Z,2.83
2018-09-25T01:29:55.643Z,2.43
2018-09-25T01:32:29.132Z,2.40
2018-09-25T01:35:02.925Z,2.83
2018-09-25T01:37:36.643Z,2.40
2018-09-25T01:40:10.668Z,3.08
2018-09-25T01:42:44.348Z,2.33
2018-09-25T01:45:18.662Z,2.30
2018-09-25T01:47:52.412Z,2.43
2018-09-25T01:50:26.216Z,2.45
2018-09-25T01:52:59.944Z,2.73
2018-09-25T01:55:33.420Z,2.13
2018-09-25T01:58:07.191Z,2.23
2018-09-25T02:00:40.776Z,2.30
2018-09-25T02:03:14.467Z,2.17
2018-09-25T02:05:48.370Z,2.83
2018-09-25T02:08:22.097Z,2.50
2018-09-25T02:10:55.695Z,2.37
2018-09-25T02:13:29.220Z,3.10
2018-09-25T02:16:02.821Z,3.07
2018-09-25T02:18:37.399Z,2.80
2018-09-25T02:21:10.985Z,2.07
2018-09-25T02:23:44.638Z,2.03
2018-09-25T02:26:18.246Z,2.70
2018-09-25T02:28:51.771Z,2.40
2018-09-25T02:31:31.975Z,2.00
2018-09-25T02:34:05.683Z,3.45
2018-09-25T02:36:39.339Z,2.67
2018-09-25T02:39:14.792Z,1.80
2018-09-25T02:41:48.988Z,2.07
2018-09-25T02:44:22.699Z,2.93
2018-09-25T02:46:56.469Z,2.67
2018-09-25T02:49:30.049Z,3.23
2018-09-25T02:52:03.766Z,2.60
2018-09-25T02:54:38.085Z,2.77
2018-09-25T02:57:11.809Z,2.90
2018-09-25T02:59:45.396Z,2.23
2018-09-25T03:02:18.973Z,2.65
2018-09-25T03:04:52.609Z,2.43
2018-09-25T03:07:26.371Z,2.90
2018-09-25T03:09:59.892Z,3.13
2018-09-25T03:12:33.533Z,2.53
2018-09-25T03:15:07.082Z,2.67
2018-09-25T03:17:40.629Z,2.57
2018-09-25T03:20:14.184Z,2.93
2018-09-25T03:22:47.981Z,3.00
2018-09-25T03:25:21.600Z,2.70
2018-09-25T03:27:55.103Z,2.97
2018-09-25T03:30:28.732Z,3.07
2018-09-25T03:33:02.496Z,3.10
2018-09-25T03:35:36.117Z,2.98
2018-09-25T03:38:09.793Z,3.17
2018-09-25T03:40:43.419Z,3.20
2018-09-25T03:43:16.961Z,3.07
2018-09-25T03:45:50.644Z,2.80
2018-09-25T03:48:24.190Z,3.73
2018-09-25T03:50:57.952Z,3.37
2018-09-25T03:53:31.592Z,3.00
2018-09-25T03:56:05.216Z,3.27
2018-09-25T03:58:38.894Z,3.47
2018-09-25T04:01:13.060Z,3.03
2018-09-25T04:03:46.636Z,3.00
2018-09-25T04:06:20.426Z,2.80
2018-09-25T04:08:53.820Z,2.87
2018-09-25T04:11:27.449Z,3.50
2018-09-25T04:14:01.085Z,4.03
2018-09-25T04:16:34.764Z,3.17
2018-09-25T04:19:08.367Z,3.10
2018-09-25T04:21:42.408Z,2.70
2018-09-25T04:24:15.996Z,2.90
2018-09-25T04:26:49.652Z,2.87
2018-09-25T04:29:23.344Z,3.43
2018-09-25T04:31:57.247Z,3.10
2018-09-25T04:34:31.101Z,3.30
2018-09-25T04:37:04.752Z,3.17
2018-09-25T04:39:38.513Z,3.20
2018-09-25T04:42:13.044Z,3.13
2018-09-25T04:44:46.845Z,2.50
2018-09-25T04:47:20.495Z,3.53
2018-09-25T04:49:54.244Z,4.17
2018-09-25T04:52:27.986Z,3.47
2018-09-25T04:55:01.725Z,3.20
2018-09-25T04:57:35.368Z,3.03
2018-09-25T05:00:09.065Z,4.25
2018-09-25T05:02:42.844Z,3.90
2018-09-25T05:05:16.320Z,3.07
2018-09-25T05:07:49.812Z,4.13
2018-09-25T05:10:23.384Z,4.20
2018-09-25T05:12:57.189Z,3.50
2018-09-25T05:15:30.839Z,4.20
2018-09-25T05:18:04.518Z,4.10
2018-09-25T05:20:38.113Z,3.67
2018-09-25T05:23:11.864Z,4.80
2018-09-25T05:25:45.501Z,4.40
2018-09-25T05:28:19.996Z,4.33
2018-09-25T05:30:53.648Z,4.87
2018-09-25T05:33:27.344Z,3.70
2018-09-25T05:36:00.936Z,3.50
2018-09-25T05:38:34.621Z,3.57
2018-09-25T05:41:08.254Z,3.90
2018-09-25T05:43:41.977Z,4.00
2018-09-25T05:46:15.709Z,3.60
2018-09-25T05:48:50.417Z,3.50
2018-09-25T05:51:24.100Z,3.73
2018-09-25T05:53:57.729Z,4.20
2018-09-25T05:56:31.404Z,4.40
2018-09-25T05:59:05.156Z,3.73
2018-09-25T06:01:38.888Z,3.30
2018-09-25T06:04:12.849Z,3.70
2018-09-25T06:06:46.415Z,4.20
2018-09-25T06:09:20.189Z,4.40
2018-09-25T06:11:53.947Z,4.13
2018-09-25T06:14:27.571Z,4.40
2018-09-25T06:17:01.299Z,4.27
2018-09-25T06:19:34.888Z,3.70
2018-09-25T06:22:08.578Z,3.53
2018-09-25T06:24:42.243Z,2.90
2018-09-25T06:27:15.980Z,2.60
2018-09-25T06:29:49.603Z,2.73
2018-09-25T06:32:24.137Z,3.07
2018-09-25T06:34:57.869Z,2.47
2018-09-25T06:37:31.592Z,2.40
2018-09-25T06:40:05.160Z,3.13
2018-09-25T06:42:38.817Z,2.60
2018-09-25T06:45:12.528Z,2.30
2018-09-25T06:47:46.136Z,2.50
2018-09-25T06:50:19.728Z,2.40
2018-09-25T06:52:54.359Z,2.25
2018-09-25T06:55:28.096Z,2.50
2018-09-25T06:58:01.804Z,2.15
2018-09-25T07:00:35.249Z,1.98
2018-09-25T07:03:08.891Z,2.12
2018-09-25T07:05:42.452Z,1.97
2018-09-25T07:08:16.228Z,2.50
2018-09-25T07:10:49.803Z,2.53
2018-09-25T07:13:23.333Z,2.17
2018-09-25T07:15:56.916Z,2.77
2018-09-25T07:18:30.436Z,2.20
2018-09-25T07:21:04.202Z,2.40
2018-09-25T07:23:37.909Z,2.30
2018-09-25T07:26:11.965Z,2.50
2018-09-25T07:28:45.617Z,2.67
2018-09-25T07:31:19.516Z,2.40
2018-09-25T07:33:53.315Z,2.40
2018-09-25T07:36:27.960Z,2.57
2018-09-25T07:39:01.588Z,2.87
2018-09-25T07:41:35.208Z,2.60
2018-09-25T07:44:09.017Z,2.93
2018-09-25T07:46:42.765Z,2.90
2018-09-25T07:49:16.617Z,2.73
2018-09-25T07:51:50.123Z,3.00
2018-09-25T07:54:23.751Z,2.57
2018-09-25T07:56:57.886Z,2.00
2018-09-25T07:59:31.511Z,2.57
2018-09-25T08:02:05.039Z,3.53
2018-09-25T08:04:38.537Z,2.50
2018-09-25T08:07:12.178Z,4.70
2018-09-25T08:09:45.743Z,3.57
2018-09-25T08:12:19.367Z,2.10
2018-09-25T08:14:52.828Z,2.43
2018-09-25T08:17:26.459Z,2.10
2018-09-25T08:19:59.912Z,2.43
2018-09-25T08:22:33.706Z,2.17
2018-09-25T08:25:07.347Z,2.33
2018-09-25T08:27:40.976Z,2.75
2018-09-25T08:30:14.673Z,2.23
2018-09-25T08:32:48.318Z,1.75
2018-09-25T08:35:22.088Z,2.00
2018-09-25T08:37:55.703Z,2.40
2018-09-25T08:40:29.400Z,2.00
2018-09-25T08:43:03.375Z,1.90
2018-09-25T08:45:37.250Z,2.20
2018-09-25T08:48:11.387Z,2.27
2018-09-25T08:50:45.136Z,2.23
2018-09-25T08:53:18.783Z,2.10
2018-09-25T08:55:52.390Z,2.43
2018-09-25T08:58:26.183Z,2.23
2018-09-25T09:01:00.050Z,1.53
2018-09-25T09:03:33.540Z,2.07
2018-09-25T09:06:07.109Z,2.00
2018-09-25T09:08:40.908Z,1.77
2018-09-25T09:11:14.539Z,1.53
2018-09-25T09:13:48.041Z,1.70
2018-09-25T09:16:21.477Z,2.27
2018-09-25T09:18:55.252Z,1.80
2018-09-25T09:21:29.047Z,1.80
2018-09-25T09:24:02.804Z,1.52
2018-09-25T09:26:36.494Z,1.63
2018-09-25T09:29:10.095Z,1.90
2018-09-25T09:31:43.700Z,1.50
2018-09-25T09:34:17.508Z,1.37
2018-09-25T09:36:51.164Z,1.70
2018-09-25T09:39:24.787Z,1.50
2018-09-25T09:41:59.663Z,1.70
2018-09-25T09:44:33.138Z,1.42
2018-09-25T09:47:06.776Z,1.10
2018-09-25T09:49:40.388Z,1.50
2018-09-25T09:52:14.055Z,2.00
2018-09-25T09:54:47.633Z,1.50
2018-09-25T09:57:21.340Z,2.27
2018-09-25T09:59:54.915Z,1.35
2018-09-25T10:02:28.525Z,1.72
2018-09-25T10:05:02.179Z,1.82
2018-09-25T10:07:36.511Z,1.85
2018-09-25T10:10:10.076Z,1.37
2018-09-25T10:12:43.776Z,1.60
2018-09-25T10:15:17.424Z,1.40
2018-09-25T10:17:51.124Z,1.70
2018-09-25T10:20:24.862Z,1.65
2018-09-25T10:22:58.452Z,2.55
2018-09-25T10:25:32.851Z,1.67
2018-09-25T10:28:06.525Z,1.42
2018-09-25T10:30:40.107Z,1.10
2018-09-25T10:33:13.909Z,1.27
2018-09-25T10:35:47.504Z,1.50
2018-09-25T10:38:21.232Z,1.37
2018-09-25T10:40:54.890Z,1.70
2018-09-25T10:43:28.650Z,1.45
2018-09-25T10:51:01.047Z,1.85
2018-09-25T10:53:34.733Z,1.10
2018-09-25T10:56:08.626Z,1.85
2018-09-25T10:58:42.376Z,1.40
2018-09-25T11:01:16.192Z,1.92
2018-09-25T11:03:49.955Z,1.22
2018-09-25T11:06:23.713Z,1.40
2018-09-25T11:08:57.368Z,0.88
2018-09-25T11:11:31.059Z,1.10
2018-09-25T11:14:04.748Z,1.43
2018-09-25T11:16:38.440Z,2.22
2018-09-25T11:19:12.185Z,1.82
2018-09-25T11:21:45.721Z,1.42
2018-09-25T11:24:19.463Z,1.67
2018-09-25T11:26:53.120Z,1.50
2018-09-25T11:29:26.707Z,1.25
2018-09-25T11:32:00.273Z,1.57
2018-09-25T11:34:34.040Z,2.37
2018-09-25T11:37:07.844Z,1.62
2018-09-25T11:39:41.513Z,1.47
2018-09-25T11:42:15.153Z,1.85
2018-09-25T11:44:48.708Z,5.15
2018-09-25T11:47:22.369Z,2.05
2018-09-25T11:49:56.033Z,1.37
2018-09-25T11:52:29.756Z,1.45
2018-09-25T11:55:03.288Z,2.77
2018-09-25T11:57:36.957Z,1.95
2018-09-25T12:00:10.731Z,1.50
2018-09-25T12:02:44.475Z,1.57
2018-09-25T12:05:18.287Z,1.72
2018-09-25T12:07:51.788Z,1.10
2018-09-25T12:10:25.483Z,1.55
2018-09-25T12:12:59.128Z,1.30
2018-09-25T12:15:32.852Z,4.80
2018-09-25T12:18:06.668Z,1.77
2018-09-25T12:20:40.329Z,1.12
2018-09-25T12:23:13.972Z,1.62
2018-09-25T12:25:47.449Z,1.50
2018-09-25T12:28:21.162Z,2.00
2018-09-25T12:30:54.887Z,1.77
2018-09-25T12:33:28.516Z,1.87
2018-09-25T12:36:01.937Z,1.85
2018-09-25T12:38:35.722Z,3.72
2018-09-25T12:41:09.503Z,2.02
2018-09-25T12:43:43.164Z,1.00
2018-09-25T12:46:16.848Z,1.70
2018-09-25T12:48:50.544Z,1.30
2018-09-25T12:51:24.017Z,1.52
2018-09-25T12:53:57.703Z,1.57
2018-09-25T12:56:31.525Z,1.55
2018-09-25T12:59:05.195Z,2.45
2018-09-25T13:01:38.817Z,1.80
2018-09-25T13:04:12.685Z,1.64
2018-09-25T13:06:47.247Z,1.15
2018-09-25T13:09:20.896Z,1.67
2018-09-25T13:11:54.647Z,1.30
2018-09-25T13:14:28.428Z,1.15
2018-09-25T13:17:02.139Z,1.77
2018-09-25T13:19:35.831Z,1.25
2018-09-25T13:22:09.524Z,1.57
2018-09-25T13:24:43.323Z,1.55
2018-09-25T13:27:17.039Z,1.47
2018-09-25T13:29:50.772Z,1.20
2018-09-25T13:32:24.377Z,1.30
2018-09-25T13:34:58.030Z,1.17
2018-09-25T13:37:31.791Z,1.10
2018-09-25T13:40:05.279Z,1.55
2018-09-25T13:42:38.941Z,1.40
2018-09-25T13:45:12.658Z,1.30
2018-09-25T13:47:46.433Z,1.10
2018-09-25T13:50:20.753Z,1.12
2018-09-25T13:52:54.401Z,0.90
2018-09-25T13:55:28.204Z,1.02
2018-09-25T13:58:01.759Z,1.25
2018-09-25T14:00:35.408Z,1.30
2018-09-25T14:03:09.120Z,1.22
2018-09-25T14:05:42.856Z,1.00
2018-09-25T14:08:16.482Z,1.40
2018-09-25T14:10:50.880Z,1.05
2018-09-25T14:13:24.672Z,1.20
2018-09-25T14:15:58.292Z,1.62
2018-09-25T14:18:32.080Z,1.25
2018-09-25T14:21:05.990Z,1.72
2018-09-25T14:23:39.619Z,1.10
2018-09-25T14:26:13.298Z,1.55
2018-09-25T14:28:47.059Z,1.05
2018-09-25T14:31:20.907Z,1.40
2018-09-25T14:33:54.700Z,1.32
2018-09-25T14:36:28.531Z,1.30
2018-09-25T14:39:02.206Z,1.37
2018-09-25T14:41:35.925Z,1.60
2018-09-25T14:44:09.556Z,1.80
2018-09-25T14:46:43.239Z,1.37
2018-09-25T14:49:16.930Z,1.32
2018-09-25T14:51:50.532Z,1.70
2018-09-25T14:54:24.565Z,2.00
2018-09-25T14:56:58.289Z,1.82
2018-09-25T14:59:31.946Z,2.00
2018-09-25T15:04:45.639Z,2.00
2018-09-25T15:07:19.243Z,2.02
2018-09-25T15:09:52.735Z,2.40
2018-09-25T15:12:26.261Z,3.85
2018-09-25T15:15:00.002Z,2.20
2018-09-25T15:17:33.702Z,2.08
2018-09-25T15:20:07.333Z,2.12
2018-09-25T15:22:41.005Z,2.17
2018-09-25T15:25:14.697Z,1.90
2018-09-25T15:27:48.496Z,2.45
2018-09-25T15:30:22.039Z,1.95
2018-09-25T15:32:55.787Z,2.20
2018-09-25T15:35:29.558Z,1.67
2018-09-25T15:38:03.249Z,2.42
2018-09-25T15:40:37.067Z,1.80
2018-09-25T15:43:10.767Z,2.08
2018-09-25T15:45:44.497Z,1.70
2018-09-25T15:48:18.155Z,2.05
2018-09-25T15:50:51.856Z,1.90
2018-09-25T15:53:25.532Z,1.80
2018-09-25T15:55:59.295Z,1.32
2018-09-25T15:58:33.132Z,1.55
2018-09-25T16:01:07.236Z,1.32
2018-09-25T16:03:40.953Z,1.40
2018-09-25T16:06:14.760Z,1.67
2018-09-25T16:08:48.460Z,1.35
2018-09-25T16:11:22.208Z,1.90
2018-09-25T16:13:55.859Z,1.62
2018-09-25T16:16:29.619Z,1.10
2018-09-25T16:19:03.349Z,1.52
2018-09-25T16:21:37.057Z,1.87
2018-09-25T16:24:10.913Z,1.30
2018-09-25T16:26:44.514Z,2.02
2018-09-25T16:29:18.358Z,2.12
2018-09-25T16:31:52.147Z,1.80
2018-09-25T16:34:25.785Z,1.50
2018-09-25T16:36:59.410Z,1.87
2018-09-25T16:39:33.436Z,1.70
2018-09-25T16:42:07.032Z,1.52
2018-09-25T16:44:40.822Z,1.60
2018-09-25T16:47:14.603Z,1.50
2018-09-25T16:49:48.240Z,1.80
2018-09-25T16:52:21.996Z,1.92
2018-09-25T16:54:55.769Z,2.20
2018-09-25T16:57:29.474Z,2.25
2018-09-25T17:00:03.260Z,1.93
2018-09-25T17:02:36.805Z,1.70
2018-09-25T17:05:11.039Z,2.10
2018-09-25T17:07:45.614Z,2.20
2018-09-25T17:10:19.229Z,1.90
2018-09-25T17:12:53.120Z,1.90
2018-09-25T17:15:26.700Z,2.30
2018-09-25T17:18:00.337Z,2.67
2018-09-25T17:20:33.967Z,2.00
2018-09-25T17:23:08.125Z,2.23
2018-09-25T17:25:41.808Z,2.37
2018-09-25T17:28:15.417Z,2.25
2018-09-25T17:30:49.052Z,1.80
2018-09-25T17:33:22.756Z,1.60
2018-09-25T17:35:56.598Z,2.40
2018-09-25T17:38:30.248Z,2.00
2018-09-25T17:41:03.758Z,3.07
2018-09-25T17:43:37.478Z,3.23
2018-09-25T17:46:11.300Z,3.70
2018-09-25T17:48:45.114Z,2.80
2018-09-25T17:51:18.795Z,3.23
2018-09-25T17:53:52.900Z,3.47
2018-09-25T17:56:26.618Z,3.70
2018-09-25T17:59:00.292Z,5.37
2018-09-25T18:01:33.965Z,8.50
2018-09-25T18:04:07.644Z,8.98
2018-09-25T18:06:41.193Z,7.67
2018-09-25T18:09:15.052Z,6.10
2018-09-25T18:11:49.609Z,5.80
2018-09-25T18:14:23.208Z,5.70
2018-09-25T18:16:56.947Z,4.00
2018-09-25T18:19:31.378Z,4.23
2018-09-25T18:22:05.242Z,3.60
2018-09-25T18:24:39.081Z,3.40
2018-09-25T18:27:12.702Z,3.53
2018-09-25T18:29:47.544Z,3.23
2018-09-25T18:32:21.606Z,2.87
2018-09-25T18:34:55.305Z,3.53
2018-09-25T18:37:29.090Z,3.45
2018-09-25T18:40:02.968Z,4.00
2018-09-25T18:42:36.529Z,4.75
2018-09-25T18:45:10.471Z,4.93
2018-09-25T18:47:44.360Z,4.80
2018-09-25T18:50:18.244Z,4.30
2018-09-25T18:52:52.058Z,4.10
2018-09-25T18:55:26.186Z,3.83
2018-09-25T18:58:00.009Z,3.97
2018-09-25T19:00:34.469Z,4.00
2018-09-25T19:03:08.911Z,4.13
2018-09-25T19:05:42.773Z,4.07
2018-09-25T19:08:16.690Z,3.97
2018-09-25T19:10:50.840Z,5.07
2018-09-25T19:13:24.616Z,4.90
2018-09-25T19:15:58.247Z,4.33
2018-09-25T19:18:31.889Z,4.33
2018-09-25T19:21:05.443Z,4.40
2018-09-25T19:23:39.186Z,4.03
2018-09-25T19:26:12.920Z,4.00
2018-09-25T19:28:46.457Z,3.90
2018-09-25T19:31:20.108Z,4.30
2018-09-25T19:33:54.623Z,4.27
2018-09-25T19:36:28.104Z,3.73
2018-09-25T19:39:02.326Z,3.73
2018-09-25T19:41:36.034Z,4.03
2018-09-25T19:44:09.871Z,4.03
2018-09-25T19:46:43.549Z,5.67
2018-09-25T19:49:17.359Z,4.70
2018-09-25T19:51:51.156Z,5.73
2018-09-25T19:54:24.916Z,5.33
2018-09-25T19:56:59.281Z,4.83
2018-09-25T19:59:33.027Z,4.73
2018-09-25T20:02:06.743Z,5.30
2018-09-25T20:04:40.777Z,4.93
2018-09-25T20:07:15.352Z,6.40
2018-09-25T20:09:49.210Z,6.23
2018-09-25T20:12:22.864Z,6.33
2018-09-25T20:14:56.667Z,5.93
2018-09-25T20:17:30.372Z,6.33
2018-09-25T20:20:04.609Z,7.47
2018-09-25T20:22:38.292Z,6.33
2018-09-25T20:25:12.043Z,6.10
2018-09-25T20:27:45.872Z,6.20
2018-09-25T20:30:19.621Z,6.40
2018-09-25T20:32:53.373Z,6.10
2018-09-25T20:35:27.663Z,6.97
2018-09-25T20:38:01.416Z,6.43
2018-09-25T20:40:35.265Z,6.27
2018-09-25T20:43:09.067Z,6.30
2018-09-25T20:45:42.791Z,6.23
2018-09-25T20:48:16.412Z,6.00
2018-09-25T20:50:50.133Z,5.70
2018-09-25T20:53:23.729Z,6.10
2018-09-25T20:55:57.418Z,5.40
2018-09-25T20:58:31.189Z,5.40
2018-09-25T21:01:04.845Z,4.97
2018-09-25T21:03:38.656Z,5.70
2018-09-25T21:06:12.277Z,5.53
2018-09-25T21:08:45.884Z,5.40
2018-09-25T21:11:19.682Z,5.47
2018-09-25T21:13:53.348Z,4.67
2018-09-25T21:16:27.092Z,5.47
2018-09-25T21:19:00.832Z,4.70
2018-09-25T21:21:34.518Z,5.43
2018-09-25T21:24:08.176Z,4.80
2018-09-25T21:26:41.966Z,5.00
2018-09-25T21:29:15.780Z,4.53
2018-09-25T21:31:49.396Z,4.43
2018-09-25T21:34:25.351Z,5.06
2018-09-25T21:36:58.977Z,4.70
2018-09-25T21:39:32.505Z,4.80
2018-09-25T21:42:06.289Z,4.85
2018-09-25T21:44:39.929Z,4.97
2018-09-25T21:47:13.612Z,4.83
2018-09-25T21:49:47.272Z,5.03
2018-09-25T21:52:20.913Z,4.85
2018-09-25T21:54:54.488Z,4.43
2018-09-25T21:57:28.201Z,4.90
2018-09-25T22:00:01.701Z,4.00
2018-09-25T22:02:35.368Z,4.90
2018-09-25T22:05:08.935Z,4.27
2018-09-25T22:07:43.174Z,4.13
2018-09-25T22:10:16.935Z,4.63
2018-09-25T22:12:50.535Z,5.07
2018-09-25T22:15:24.236Z,4.55
2018-09-25T22:17:57.921Z,4.57
2018-09-25T22:20:31.559Z,4.43
2018-09-25T22:23:05.150Z,4.30
2018-09-25T22:25:38.785Z,4.55
2018-09-25T22:28:12.532Z,4.30
2018-09-25T22:30:46.208Z,4.03
2018-09-25T22:33:19.808Z,3.70
2018-09-25T22:35:53.464Z,3.90
2018-09-25T22:38:26.916Z,4.20
2018-09-25T22:41:00.703Z,4.37
2018-09-25T22:43:34.540Z,4.37
2018-09-25T22:46:08.155Z,3.50
2018-09-25T22:48:41.807Z,3.67
2018-09-25T22:51:16.345Z,3.70
2018-09-25T22:53:49.979Z,3.47
2018-09-25T22:56:23.772Z,3.97
2018-09-25T22:58:57.413Z,3.57
2018-09-25T23:01:31.068Z,3.97
2018-09-25T23:04:04.720Z,3.80
2018-09-25T23:06:38.330Z,3.47
2018-09-25T23:09:13.784Z,3.10
2018-09-25T23:11:47.736Z,3.60
2018-09-25T23:14:21.380Z,3.50
2018-09-25T23:16:55.069Z,3.40
2018-09-25T23:19:28.726Z,3.33
2018-09-25T23:22:02.569Z,3.07
2018-09-25T23:24:36.316Z,3.70
2018-09-25T23:27:10.016Z,3.45
2018-09-25T23:29:44.200Z,3.77
2018-09-25T23:32:17.920Z,4.10
2018-09-25T23:34:51.403Z,3.83
2018-09-25T23:37:24.955Z,4.03
2018-09-25T23:40:57.148Z,3.83
2018-09-25T23:43:29.715Z,3.87
2018-09-25T23:46:17.223Z,3.50
2018-09-25T23:48:51.334Z,3.27
2018-09-25T23:51:26.241Z,3.30
2018-09-25T23:53:59.819Z,3.60
2018-09-25T23:56:35.535Z,3.57
2018-09-25T23:59:12.385Z,3.20
